createdAt,value
2019-01-12T00:00:37.945Z,7.20
2019-01-12T00:03:10.067Z,7.30
2019-01-12T00:05:41.774Z,7.30
2019-01-12T00:08:11.653Z,7.20
2019-01-12T00:10:41.406Z,7.20
2019-01-12T00:13:11.785Z,7.30
2019-01-12T00:15:45.075Z,7.20
2019-01-12T00:18:15.208Z,7.20
2019-01-12T00:20:46.526Z,7.20
2019-01-12T00:23:18.012Z,7.20
2019-01-12T00:25:49.217Z,7.20
2019-01-12T00:28:21.004Z,7.10
2019-01-12T00:30:56.621Z,7.10
2019-01-12T00:33:29.179Z,7.10
2019-01-12T00:36:00.946Z,7.10
2019-01-12T00:38:36.179Z,7.10
2019-01-12T00:41:13.783Z,7.10
2019-01-12T00:43:44.039Z,7.10
2019-01-12T00:46:15.072Z,7.10
2019-01-12T00:48:45.071Z,7.10
2019-01-12T00:51:16.813Z,7.00
2019-01-12T00:53:50.579Z,7.00
2019-01-12T00:56:23.572Z,7.00
2019-01-12T00:58:54.366Z,7.00
2019-01-12T01:01:25.277Z,7.00
2019-01-12T01:04:04.323Z,7.00
2019-01-12T01:06:34.243Z,7.00
2019-01-12T01:09:07.287Z,7.00
2019-01-12T01:11:37.131Z,7.00
2019-01-12T01:14:09.224Z,7.00
2019-01-12T01:16:39.172Z,7.00
2019-01-12T01:19:11.517Z,7.00
2019-01-12T01:21:42.431Z,7.10
2019-01-12T01:24:14.297Z,7.00
2019-01-12T01:26:44.350Z,6.90
2019-01-12T01:29:14.464Z,6.90
2019-01-12T01:31:45.951Z,6.90
2019-01-12T01:34:18.605Z,6.90
2019-01-12T01:36:48.564Z,6.90
2019-01-12T01:39:20.014Z,6.90
2019-01-12T01:41:53.090Z,6.90
2019-01-12T01:44:25.922Z,7.00
2019-01-12T01:46:56.215Z,7.00
2019-01-12T01:49:28.053Z,7.00
2019-01-12T01:52:00.417Z,7.00
2019-01-12T01:54:33.055Z,7.00
2019-01-12T01:57:04.912Z,7.00
2019-01-12T01:59:34.799Z,7.00
2019-01-12T02:02:04.550Z,7.00
2019-01-12T02:04:37.580Z,7.00
2019-01-12T02:07:07.499Z,7.00
2019-01-12T02:09:38.289Z,7.00
2019-01-12T02:12:13.910Z,7.00
2019-01-12T02:14:46.355Z,6.90
2019-01-12T02:17:16.621Z,6.90
2019-01-12T02:19:46.484Z,6.90
2019-01-12T02:22:19.221Z,6.90
2019-01-12T02:24:49.550Z,6.90
2019-01-12T02:27:19.334Z,7.00
2019-01-12T02:29:49.657Z,7.00
2019-01-12T02:32:22.569Z,7.00
2019-01-12T02:34:54.370Z,6.90
2019-01-12T02:37:24.141Z,7.00
2019-01-12T02:39:54.130Z,7.00
2019-01-12T02:42:23.933Z,7.00
2019-01-12T02:44:56.170Z,7.00
2019-01-12T02:47:25.994Z,6.90
2019-01-12T02:49:55.796Z,6.90
2019-01-12T02:52:25.760Z,6.90
2019-01-12T02:54:55.444Z,6.90
2019-01-12T02:57:26.947Z,6.90
2019-01-12T02:59:56.717Z,6.90
2019-01-12T03:02:30.666Z,6.90
2019-01-12T03:05:03.095Z,6.90
2019-01-12T03:07:33.047Z,6.80
2019-01-12T03:10:04.965Z,6.80
2019-01-12T03:12:36.933Z,6.80
2019-01-12T03:15:09.793Z,6.80
2019-01-12T03:17:39.911Z,6.80
2019-01-12T03:20:15.052Z,6.90
2019-01-12T03:22:45.215Z,6.80
2019-01-12T03:25:18.622Z,6.70
2019-01-12T03:27:47.565Z,6.80
2019-01-12T03:30:17.968Z,6.70
2019-01-12T03:32:47.932Z,6.70
2019-01-12T03:35:45.346Z,6.70
2019-01-12T03:38:22.486Z,6.80
2019-01-12T03:40:54.339Z,6.70
2019-01-12T03:43:30.584Z,6.80
2019-01-12T03:46:01.370Z,6.70
2019-01-12T03:48:32.274Z,6.80
2019-01-12T03:51:03.515Z,6.70
2019-01-12T03:53:33.559Z,6.70
2019-01-12T03:56:03.453Z,6.70
2019-01-12T03:58:36.399Z,6.60
2019-01-12T04:01:06.431Z,6.70
2019-01-12T04:03:36.264Z,6.60
2019-01-12T04:06:06.188Z,6.60
2019-01-12T04:08:36.161Z,6.60
2019-01-12T04:11:06.021Z,6.60
2019-01-12T04:13:35.741Z,6.60
2019-01-12T04:16:05.844Z,6.60
2019-01-12T04:18:35.641Z,6.60
2019-01-12T04:21:05.640Z,6.50
2019-01-12T04:23:35.376Z,6.50
2019-01-12T04:26:05.172Z,6.50
2019-01-12T04:28:34.944Z,6.40
2019-01-12T04:31:04.981Z,6.40
2019-01-12T04:33:34.762Z,6.40
2019-01-12T04:36:10.431Z,6.50
2019-01-12T04:38:42.640Z,6.40
2019-01-12T04:41:15.283Z,6.50
2019-01-12T04:43:45.149Z,6.50
2019-01-12T04:46:14.918Z,6.50
2019-01-12T04:48:45.603Z,6.50
2019-01-12T04:51:15.625Z,6.50
2019-01-12T04:53:45.390Z,6.50
2019-01-12T04:56:16.914Z,6.50
2019-01-12T04:58:48.918Z,6.50
2019-01-12T05:01:18.673Z,6.50
2019-01-12T05:03:48.336Z,6.50
2019-01-12T05:06:18.343Z,6.50
2019-01-12T05:08:47.970Z,6.50
2019-01-12T05:11:20.117Z,6.50
2019-01-12T05:13:49.369Z,6.50
2019-01-12T05:16:32.466Z,6.40
2019-01-12T05:19:02.410Z,6.50
2019-01-12T05:21:32.170Z,6.50
2019-01-12T05:24:01.970Z,6.50
2019-01-12T05:26:31.752Z,6.40
2019-01-12T05:29:03.391Z,6.50
2019-01-12T05:31:33.188Z,6.50
2019-01-12T05:34:02.981Z,6.50
2019-01-12T05:36:32.722Z,6.50
2019-01-12T05:39:02.533Z,6.50
2019-01-12T05:41:32.426Z,6.50
2019-01-12T05:44:02.414Z,6.50
2019-01-12T05:46:32.323Z,6.50
2019-01-12T05:49:03.818Z,6.40
2019-01-12T05:51:33.607Z,6.50
2019-01-12T05:54:03.499Z,6.40
2019-01-12T05:56:33.244Z,6.40
2019-01-12T05:59:03.937Z,6.50
2019-01-12T06:01:36.071Z,6.50
2019-01-12T06:04:05.966Z,6.40
2019-01-12T06:06:35.762Z,6.40
2019-01-12T06:09:07.477Z,6.40
2019-01-12T06:11:37.245Z,6.40
2019-01-12T06:14:07.020Z,6.40
2019-01-12T06:16:36.997Z,6.50
2019-01-12T06:19:06.769Z,6.40
2019-01-12T06:21:36.663Z,6.50
2019-01-12T06:24:08.553Z,6.40
2019-01-12T06:26:42.002Z,6.50
2019-01-12T06:29:14.491Z,6.40
2019-01-12T06:31:45.186Z,6.40
2019-01-12T06:34:14.924Z,6.40
2019-01-12T06:36:46.319Z,6.40
2019-01-12T06:39:16.132Z,6.40
2019-01-12T06:41:46.037Z,6.40
2019-01-12T06:44:15.724Z,6.40
2019-01-12T06:46:45.617Z,6.40
2019-01-12T06:49:15.469Z,6.40
2019-01-12T06:51:45.226Z,6.40
2019-01-12T06:54:15.266Z,6.40
2019-01-12T06:56:46.591Z,6.40
2019-01-12T06:59:18.529Z,6.40
2019-01-12T07:01:50.108Z,6.40
2019-01-12T07:04:22.978Z,6.40
2019-01-12T07:06:55.242Z,6.40
2019-01-12T07:09:25.023Z,6.40
2019-01-12T07:11:55.808Z,6.40
2019-01-12T07:14:28.236Z,6.40
2019-01-12T07:16:59.171Z,6.30
2019-01-12T07:19:29.100Z,6.30
2019-01-12T07:22:02.520Z,6.30
2019-01-12T07:24:34.373Z,6.30
2019-01-12T07:27:04.065Z,6.40
2019-01-12T07:29:39.980Z,6.30
2019-01-12T07:32:11.845Z,6.30
2019-01-12T07:34:43.633Z,6.40
2019-01-12T07:37:17.614Z,6.30
2019-01-12T07:39:47.462Z,6.30
2019-01-12T07:42:18.417Z,6.30
2019-01-12T07:44:48.376Z,6.30
2019-01-12T07:47:18.325Z,6.30
2019-01-12T07:49:48.174Z,6.30
2019-01-12T07:52:21.647Z,6.30
2019-01-12T07:54:52.692Z,6.30
2019-01-12T07:57:22.666Z,6.30
2019-01-12T07:59:56.178Z,6.30
2019-01-12T08:02:25.883Z,6.30
2019-01-12T08:04:57.035Z,6.30
2019-01-12T08:07:29.513Z,6.30
2019-01-12T08:09:59.527Z,6.30
2019-01-12T08:12:29.432Z,6.30
2019-01-12T08:14:59.376Z,6.30
2019-01-12T08:17:30.940Z,6.30
2019-01-12T08:20:01.564Z,6.30
2019-01-12T08:22:31.428Z,6.40
2019-01-12T08:25:09.829Z,6.40
2019-01-12T08:27:39.777Z,6.40
2019-01-12T08:30:16.666Z,6.30
2019-01-12T08:32:50.293Z,6.40
2019-01-12T08:35:22.097Z,6.40
2019-01-12T08:37:54.828Z,6.40
2019-01-12T08:40:27.276Z,6.40
2019-01-12T08:42:57.225Z,6.40
2019-01-12T08:45:27.309Z,6.40
2019-01-12T08:47:58.215Z,6.40
2019-01-12T08:50:28.050Z,6.40
2019-01-12T08:53:03.966Z,6.50
2019-01-12T08:55:35.399Z,6.50
2019-01-12T08:58:08.227Z,6.50
2019-01-12T09:00:43.417Z,6.60
2019-01-12T09:03:13.750Z,6.50
2019-01-12T09:05:46.987Z,6.50
2019-01-12T09:08:19.480Z,6.50
2019-01-12T09:10:49.578Z,6.50
2019-01-12T09:13:22.284Z,6.60
2019-01-12T09:15:52.217Z,6.60
2019-01-12T09:18:23.683Z,6.60
2019-01-12T09:20:55.166Z,6.60
2019-01-12T09:23:27.338Z,6.60
2019-01-12T09:25:59.708Z,6.70
2019-01-12T09:28:34.637Z,6.80
2019-01-12T09:31:11.736Z,6.80
2019-01-12T09:33:44.635Z,6.80
2019-01-12T09:36:14.473Z,6.80
2019-01-12T09:38:44.614Z,6.90
2019-01-12T09:41:14.720Z,6.80
2019-01-12T09:43:48.647Z,6.80
2019-01-12T09:46:19.534Z,6.80
2019-01-12T09:48:56.857Z,6.80
2019-01-12T09:51:28.746Z,6.80
2019-01-12T09:53:58.581Z,6.80
2019-01-12T09:56:28.360Z,6.90
2019-01-12T09:58:59.250Z,6.90
2019-01-12T10:01:29.212Z,6.90
2019-01-12T10:04:17.534Z,6.90
2019-01-12T10:06:55.464Z,6.90
2019-01-12T10:09:25.218Z,6.80
2019-01-12T10:11:55.887Z,6.80
2019-01-12T10:14:26.873Z,6.80
2019-01-12T10:16:57.810Z,6.80
2019-01-12T10:19:28.595Z,6.80
2019-01-12T10:22:00.048Z,6.80
2019-01-12T10:24:38.395Z,6.80
2019-01-12T10:27:13.367Z,6.80
2019-01-12T10:29:43.174Z,6.90
2019-01-12T10:32:13.101Z,7.00
2019-01-12T10:34:49.783Z,7.00
2019-01-12T10:37:21.217Z,7.00
2019-01-12T10:39:53.058Z,7.00
2019-01-12T10:42:25.469Z,6.90
2019-01-12T10:44:55.503Z,6.90
2019-01-12T10:47:25.395Z,6.90
2019-01-12T10:49:55.122Z,6.80
2019-01-12T10:52:25.191Z,6.80
2019-01-12T10:54:58.013Z,6.80
2019-01-12T10:57:27.872Z,6.80
2019-01-12T10:59:58.594Z,6.70
2019-01-12T11:02:28.784Z,6.70
2019-01-12T11:04:59.689Z,6.70
2019-01-12T11:07:30.535Z,6.60
2019-01-12T11:10:08.468Z,6.70
2019-01-12T11:12:38.533Z,6.70
2019-01-12T11:15:11.578Z,6.70
2019-01-12T11:17:43.309Z,6.70
2019-01-12T11:20:13.481Z,6.60
2019-01-12T11:22:43.320Z,6.70
2019-01-12T11:25:15.443Z,6.60
2019-01-12T11:27:47.113Z,6.70
2019-01-12T11:30:20.528Z,6.60
2019-01-12T11:32:50.400Z,6.70
2019-01-12T11:35:21.149Z,6.70
2019-01-12T11:37:50.972Z,6.60
2019-01-12T11:40:29.794Z,6.60
2019-01-12T11:43:09.986Z,6.70
2019-01-12T11:45:43.193Z,6.70
2019-01-12T11:48:16.094Z,6.70
2019-01-12T11:50:45.971Z,6.70
2019-01-12T11:53:16.948Z,6.70
2019-01-12T11:55:46.837Z,6.70
2019-01-12T11:58:16.836Z,6.70
2019-01-12T12:00:46.931Z,6.70
2019-01-12T12:03:16.871Z,6.70
2019-01-12T12:05:50.916Z,6.70
2019-01-12T12:08:26.380Z,6.70
2019-01-12T12:10:56.166Z,6.80
2019-01-12T12:13:25.757Z,6.80
2019-01-12T12:15:55.861Z,6.80
2019-01-12T12:18:25.661Z,6.90
2019-01-12T12:20:55.450Z,6.90
2019-01-12T12:23:25.508Z,6.90
2019-01-12T12:25:55.665Z,6.90
2019-01-12T12:28:25.414Z,6.90
2019-01-12T12:31:00.118Z,6.90
2019-01-12T12:33:30.226Z,6.90
2019-01-12T12:36:02.067Z,7.00
2019-01-12T12:38:31.889Z,7.00
2019-01-12T12:41:02.975Z,7.00
2019-01-12T12:43:34.446Z,7.00
2019-01-12T12:46:04.831Z,7.00
2019-01-12T12:48:34.748Z,7.00
2019-01-12T12:51:07.698Z,7.00
2019-01-12T12:53:41.594Z,7.00
2019-01-12T12:56:11.452Z,7.00
2019-01-12T12:58:41.489Z,7.00
2019-01-12T13:01:11.379Z,7.10
2019-01-12T13:03:41.645Z,7.00
2019-01-12T13:06:12.550Z,7.00
2019-01-12T13:08:48.285Z,7.00
2019-01-12T13:11:13.960Z,7.00
2019-01-12T13:13:45.717Z,7.00
2019-01-12T13:16:15.499Z,7.00
2019-01-12T13:18:46.268Z,7.10
2019-01-12T13:21:18.421Z,7.10
2019-01-12T13:23:49.775Z,7.10
2019-01-12T13:26:22.852Z,7.10
2019-01-12T13:28:52.657Z,7.20
2019-01-12T13:31:22.574Z,7.20
2019-01-12T13:33:53.487Z,7.10
2019-01-12T13:36:26.079Z,7.20
2019-01-12T13:38:56.124Z,7.20
2019-01-12T13:41:27.817Z,7.20
2019-01-12T13:43:59.612Z,7.30
2019-01-12T13:46:29.642Z,7.20
2019-01-12T13:49:00.877Z,7.30
2019-01-12T13:51:34.738Z,7.30
2019-01-12T13:54:09.276Z,7.30
2019-01-12T13:56:45.123Z,7.30
2019-01-12T13:59:25.699Z,7.40
2019-01-12T14:01:57.672Z,7.40
2019-01-12T14:04:29.974Z,7.40
2019-01-12T14:07:00.849Z,7.40
2019-01-12T14:09:31.505Z,7.40
2019-01-12T14:12:03.204Z,7.40
2019-01-12T14:14:37.560Z,7.40
2019-01-12T14:17:07.857Z,7.40
2019-01-12T14:19:37.692Z,7.50
2019-01-12T14:22:09.115Z,7.50
2019-01-12T14:24:46.389Z,7.50
2019-01-12T14:27:16.413Z,7.50
2019-01-12T14:29:48.166Z,7.60
2019-01-12T14:32:20.446Z,7.50
2019-01-12T14:34:52.987Z,7.60
2019-01-12T14:37:22.954Z,7.60
2019-01-12T14:39:53.072Z,7.60
2019-01-12T14:42:22.924Z,7.60
2019-01-12T14:44:52.822Z,7.60
2019-01-12T14:47:22.972Z,7.60
2019-01-12T14:49:58.809Z,7.60
2019-01-12T14:52:29.975Z,7.60
2019-01-12T14:55:02.708Z,7.60
2019-01-12T14:57:35.474Z,7.70
2019-01-12T15:00:15.193Z,7.70
2019-01-12T15:02:46.631Z,7.80
2019-01-12T15:05:25.780Z,7.80
2019-01-12T15:07:56.207Z,7.80
2019-01-12T15:10:26.228Z,7.80
2019-01-12T15:12:56.351Z,7.80
2019-01-12T15:15:26.347Z,7.80
2019-01-12T15:17:56.241Z,7.80
2019-01-12T15:20:46.251Z,7.90
2019-01-12T15:23:19.076Z,7.90
2019-01-12T15:25:51.882Z,8.00
2019-01-12T15:28:22.689Z,7.90
2019-01-12T15:30:57.882Z,7.90
2019-01-12T15:33:30.029Z,7.90
2019-01-12T15:36:00.988Z,7.80
2019-01-12T15:38:30.913Z,7.80
2019-01-12T15:41:03.595Z,7.80
2019-01-12T15:43:33.678Z,7.80
2019-01-12T15:46:06.551Z,7.90
2019-01-12T15:48:36.340Z,7.90
2019-01-12T15:51:06.344Z,7.90
2019-01-12T15:53:37.194Z,7.90
2019-01-12T15:56:08.869Z,7.80
2019-01-12T15:58:38.969Z,7.80
2019-01-12T16:01:14.091Z,7.80
2019-01-12T16:03:44.224Z,7.80
2019-01-12T16:06:15.060Z,7.90
2019-01-12T16:08:44.883Z,7.90
2019-01-12T16:11:17.411Z,7.90
2019-01-12T16:13:49.136Z,7.90
2019-01-12T16:16:22.643Z,8.00
2019-01-12T16:18:52.516Z,7.90
2019-01-12T16:21:24.338Z,7.90
2019-01-12T16:23:57.021Z,7.90
2019-01-12T16:26:27.045Z,7.80
2019-01-12T16:29:04.027Z,7.80
2019-01-12T16:32:01.126Z,7.80
2019-01-12T16:34:31.197Z,7.80
2019-01-12T16:37:09.068Z,7.80
2019-01-12T16:39:42.306Z,7.90
2019-01-12T16:42:16.095Z,7.90
2019-01-12T16:44:47.753Z,7.90
2019-01-12T16:47:18.835Z,8.00
2019-01-12T16:49:51.459Z,8.00
2019-01-12T16:52:21.227Z,7.90
2019-01-12T16:54:51.398Z,7.90
2019-01-12T16:57:23.373Z,7.90
2019-01-12T17:02:48.254Z,7.80
2019-01-12T17:05:19.469Z,7.80
2019-01-12T17:07:53.934Z,7.80
2019-01-12T17:10:23.718Z,7.80
2019-01-12T17:12:54.573Z,7.80
2019-01-12T17:15:25.062Z,7.90
2019-01-12T17:17:58.860Z,7.80
2019-01-12T17:20:32.511Z,7.80
2019-01-12T17:23:02.435Z,7.90
2019-01-12T17:25:38.899Z,7.80
2019-01-12T17:28:10.476Z,7.90
2019-01-12T17:30:40.607Z,7.90
2019-01-12T17:33:10.447Z,7.80
2019-01-12T17:35:40.266Z,7.70
2019-01-12T17:38:10.114Z,7.70
2019-01-12T17:40:40.262Z,7.70
2019-01-12T17:43:10.122Z,7.70
2019-01-12T17:45:39.956Z,7.70
2019-01-12T17:48:10.851Z,7.70
2019-01-12T17:50:43.194Z,7.70
2019-01-12T17:53:13.061Z,7.70
2019-01-12T17:55:42.939Z,7.70
2019-01-12T17:58:13.024Z,7.70
2019-01-12T18:00:45.413Z,7.70
2019-01-12T18:03:17.389Z,7.70
2019-01-12T18:05:47.100Z,7.70
2019-01-12T18:08:17.021Z,7.70
2019-01-12T18:10:46.911Z,7.70
2019-01-12T18:13:23.330Z,7.80
2019-01-12T18:15:53.303Z,7.80
2019-01-12T18:18:29.047Z,7.70
2019-01-12T18:21:01.502Z,7.60
2019-01-12T18:23:32.311Z,7.60
2019-01-12T18:26:04.459Z,7.60
2019-01-12T18:28:34.321Z,7.60
2019-01-12T18:31:05.312Z,7.70
2019-01-12T18:33:41.097Z,7.70
2019-01-12T18:36:12.171Z,7.70
2019-01-12T18:38:42.113Z,7.70
2019-01-12T18:41:13.001Z,7.70
2019-01-12T18:43:43.920Z,7.70
2019-01-12T18:46:13.948Z,7.70
2019-01-12T18:48:43.685Z,7.70
2019-01-12T18:51:15.666Z,7.70
2019-01-12T18:53:45.606Z,7.70
2019-01-12T18:56:15.891Z,7.70
2019-01-12T18:58:47.690Z,7.60
2019-01-12T19:01:18.445Z,7.60
2019-01-12T19:03:50.270Z,7.60
2019-01-12T19:06:20.179Z,7.60
2019-01-12T19:09:19.859Z,7.60
2019-01-12T19:11:45.864Z,7.60
2019-01-12T19:14:15.789Z,7.60
2019-01-12T19:16:45.517Z,7.50
2019-01-12T19:19:17.991Z,7.60
2019-01-12T19:21:47.848Z,7.40
2019-01-12T19:24:17.877Z,7.30
2019-01-12T19:26:48.640Z,7.30
2019-01-12T19:29:18.513Z,7.10
2019-01-12T19:31:50.007Z,7.20
2019-01-12T19:34:19.829Z,7.10
2019-01-12T19:36:50.546Z,7.10
2019-01-12T19:39:21.328Z,7.10
2019-01-12T19:41:52.490Z,7.00
2019-01-12T19:44:23.999Z,7.00
2019-01-12T19:46:53.857Z,7.10
2019-01-12T19:49:24.694Z,7.00
2019-01-12T19:51:54.659Z,7.00
2019-01-12T19:54:24.478Z,7.00
2019-01-12T19:56:54.380Z,7.10
2019-01-12T19:59:24.161Z,7.10
2019-01-12T20:01:54.272Z,7.10
2019-01-12T20:04:27.972Z,7.10
2019-01-12T20:07:01.274Z,7.10
2019-01-12T20:09:34.358Z,7.10
2019-01-12T20:12:11.236Z,7.10
2019-01-12T20:14:38.863Z,7.10
2019-01-12T20:17:08.715Z,7.20
2019-01-12T20:19:39.969Z,7.20
2019-01-12T20:22:11.463Z,7.30
2019-01-12T20:24:45.548Z,7.30
2019-01-12T20:27:17.339Z,7.30
2019-01-12T20:29:47.492Z,7.30
2019-01-12T20:32:29.033Z,7.20
2019-01-12T20:35:01.660Z,7.30
2019-01-12T20:37:52.240Z,7.30
2019-01-12T20:40:38.252Z,7.30
2019-01-12T20:43:22.879Z,7.30
2019-01-12T20:45:55.904Z,7.30
2019-01-12T20:48:55.387Z,7.30
2019-01-12T20:51:59.371Z,7.30
2019-01-12T20:54:57.602Z,7.30
2019-01-12T20:57:54.647Z,7.40
2019-01-12T21:00:48.677Z,7.40
2019-01-12T21:03:30.829Z,7.40
2019-01-12T21:06:14.611Z,7.30
2019-01-12T21:08:55.470Z,7.30
2019-01-12T21:11:45.643Z,7.30
2019-01-12T21:14:26.528Z,7.40
2019-01-12T21:16:57.481Z,7.40
2019-01-12T21:19:34.605Z,7.40
2019-01-12T21:22:07.561Z,7.40
2019-01-12T21:24:37.481Z,7.40
2019-01-12T21:27:07.424Z,7.40
2019-01-12T21:29:37.391Z,7.40
2019-01-12T21:32:07.216Z,7.40
2019-01-12T21:34:40.487Z,7.40
2019-01-12T21:37:12.537Z,7.40
2019-01-12T21:39:42.308Z,7.40
2019-01-12T21:42:16.274Z,7.40
2019-01-12T21:44:47.624Z,7.50
2019-01-12T21:47:17.540Z,7.50
2019-01-12T21:49:47.333Z,7.50
2019-01-12T21:52:17.291Z,7.50
2019-01-12T21:54:47.030Z,7.50
2019-01-12T21:57:16.913Z,7.50
2019-01-12T21:59:49.675Z,7.50
2019-01-12T22:02:19.351Z,7.50
2019-01-12T22:04:51.328Z,7.50
2019-01-12T22:07:25.018Z,7.50
2019-01-12T22:09:58.036Z,7.50
2019-01-12T22:12:29.094Z,7.50
2019-01-12T22:15:01.454Z,7.50
2019-01-12T22:17:32.943Z,7.50
2019-01-12T22:20:03.457Z,7.50
2019-01-12T22:22:33.471Z,7.50
2019-01-12T22:25:03.426Z,7.50
2019-01-12T22:27:33.380Z,7.50
2019-01-12T22:30:05.914Z,7.50
2019-01-12T22:32:35.740Z,7.60
2019-01-12T22:35:14.251Z,7.50
2019-01-12T22:37:44.412Z,7.60
2019-01-12T22:40:20.486Z,7.60
2019-01-12T22:42:51.765Z,7.60
2019-01-12T22:45:21.800Z,7.60
2019-01-12T22:47:51.760Z,7.70
2019-01-12T22:50:21.773Z,7.70
2019-01-12T22:52:51.647Z,7.70
2019-01-12T22:55:22.471Z,7.70
2019-01-12T22:57:53.249Z,7.70
2019-01-12T23:00:52.732Z,7.70
2019-01-12T23:03:24.341Z,7.60
2019-01-12T23:05:58.082Z,7.60
2019-01-12T23:08:27.575Z,7.60
2019-01-12T23:11:00.383Z,7.60
2019-01-12T23:13:30.291Z,7.60
2019-01-12T23:16:00.152Z,7.60
2019-01-12T23:18:29.998Z,7.60
2019-01-12T23:20:59.863Z,7.60
2019-01-12T23:23:29.633Z,7.60
2019-01-12T23:26:04.884Z,7.60
2019-01-12T23:28:35.744Z,7.60
2019-01-12T23:31:07.014Z,7.60
2019-01-12T23:33:37.307Z,7.60
2019-01-12T23:36:07.229Z,7.60
2019-01-12T23:38:42.606Z,7.60
2019-01-12T23:41:11.726Z,7.70
2019-01-12T23:43:41.594Z,7.70
2019-01-12T23:46:16.207Z,7.70
2019-01-12T23:48:47.679Z,7.70
2019-01-12T23:51:19.320Z,7.70
2019-01-12T23:53:49.059Z,7.70
2019-01-12T23:56:19.202Z,7.70
2019-01-12T23:58:50.127Z,7.70
